Time;durP1;ratioP1;P1;durP2;ratioP2;P2;SDS_P1;SDS_P2;PMS_P1;PMS_P2;Temp;Humidity;BMP_temperature;BMP_pressure;BME280_temperature;BME280_humidity;BME280_pressure;Samples;Min_cycle;Max_cycle;Signal;HPM_P1;HPM_P2
2023/10/16 00:00:47;;;;;;;8.45;5.93;;;5.30;98.20;;;;;;4965534;28;20054;-89
2023/10/16 00:03:13;;;;;;;5.13;4.70;;;5.30;96.90;;;;;;4976152;28;20027;-92
2023/10/16 00:05:51;;;;;;;6.13;5.72;;;5.40;96.50;;;;;;4963171;29;20035;-90
2023/10/16 00:08:18;;;;;;;6.03;5.38;;;5.40;96.00;;;;;;4962177;28;20107;-92
2023/10/16 00:10:59;;;;;;;6.10;5.80;;;5.40;95.50;;;;;;4968605;28;20048;-89
2023/10/16 00:13:28;;;;;;;6.20;5.70;;;5.40;94.40;;;;;;4960135;28;20020;-88
2023/10/16 00:16:03;;;;;;;5.40;5.00;;;5.50;94.20;;;;;;4959704;28;20204;-91
2023/10/16 00:18:36;;;;;;;4.85;4.55;;;5.50;94.90;;;;;;4961572;28;20027;-91
2023/10/16 00:21:06;;;;;;;6.55;4.80;;;5.50;95.60;;;;;;4980634;28;20027;-91
2023/10/16 00:23:40;;;;;;;4.70;4.30;;;5.60;95.50;;;;;;4956555;28;20032;-91
2023/10/16 00:26:12;;;;;;;5.63;5.15;;;5.60;95.30;;;;;;4965649;28;20107;-92
2023/10/16 00:28:44;;;;;;;6.32;5.93;;;5.60;95.20;;;;;;4971867;28;20027;-91
2023/10/16 00:31:11;;;;;;;4.82;4.53;;;5.60;94.00;;;;;;4959313;28;20031;-91
2023/10/16 00:33:39;;;;;;;5.22;4.82;;;5.40;93.90;;;;;;4962997;28;20020;-91
2023/10/16 00:36:06;;;;;;;4.90;4.60;;;5.20;94.60;;;;;;4960858;28;20026;-90
2023/10/16 00:38:37;;;;;;;5.60;5.30;;;5.20;94.90;;;;;;4960501;28;20390;-91
2023/10/16 00:41:16;;;;;;;6.82;6.43;;;5.20;95.10;;;;;;4962280;28;20046;-91
2023/10/16 00:43:44;;;;;;;6.57;6.18;;;5.20;95.40;;;;;;4946348;28;20038;-90
2023/10/16 00:46:14;;;;;;;6.25;5.85;;;5.30;95.30;;;;;;4985031;28;20032;-91
2023/10/16 00:48:40;;;;;;;5.85;5.43;;;5.30;94.50;;;;;;4973466;29;20027;-91
2023/10/16 00:51:16;;;;;;;8.27;7.88;;;5.30;94.10;;;;;;4963337;28;20034;-89
2023/10/16 00:53:42;;;;;;;4.32;4.05;;;5.40;94.40;;;;;;4969660;28;20101;-91
2023/10/16 00:56:12;;;;;;;7.72;7.20;;;5.20;92.90;;;;;;4956705;28;20028;-90
2023/10/16 00:58:40;;;;;;;5.93;5.45;;;5.20;93.10;;;;;;4962147;28;20139;-91
2023/10/16 01:01:09;;;;;;;5.15;4.75;;;5.00;92.90;;;;;;4954700;29;20451;-90
2023/10/16 01:03:37;;;;;;;5.78;5.32;;;5.00;94.00;;;;;;4975081;28;20037;-89
2023/10/16 01:06:04;;;;;;;5.85;5.35;;;5.00;93.80;;;;;;4969340;28;20494;-91
2023/10/16 01:08:30;;;;;;;6.55;6.15;;;5.10;94.80;;;;;;4976608;28;20035;-92
2023/10/16 01:10:59;;;;;;;6.30;5.80;;;5.10;95.20;;;;;;4967440;28;20034;-91
2023/10/16 01:13:28;;;;;;;6.78;6.38;;;5.10;95.00;;;;;;4972876;28;20027;-90
2023/10/16 01:15:56;;;;;;;5.63;5.32;;;5.20;94.80;;;;;;4950083;29;20020;-90
2023/10/16 01:18:23;;;;;;;5.68;5.28;;;5.10;94.50;;;;;;4965458;28;20023;-93
2023/10/16 01:20:50;;;;;;;6.45;6.05;;;5.00;95.00;;;;;;4959933;28;20652;-92
2023/10/16 01:23:20;;;;;;;5.00;4.70;;;4.90;95.90;;;;;;4963562;28;20031;-90
2023/10/16 01:25:47;;;;;;;6.75;6.35;;;4.80;96.40;;;;;;4965161;28;20030;-89
2023/10/16 01:28:15;;;;;;;5.22;4.82;;;4.80;96.40;;;;;;4972201;28;20024;-91
2023/10/16 01:30:42;;;;;;;6.85;6.35;;;4.80;96.20;;;;;;4973092;28;20055;-91
2023/10/16 01:33:08;;;;;;;6.18;5.78;;;4.80;96.20;;;;;;4993428;28;20023;-92
2023/10/16 01:35:36;;;;;;;5.88;5.47;;;4.70;96.70;;;;;;4996078;28;20027;-90
2023/10/16 01:38:20;;;;;;;4.78;4.38;;;4.70;97.00;;;;;;4958803;28;20019;-92
2023/10/16 01:41:02;;;;;;;5.13;4.72;;;4.60;96.30;;;;;;4962623;28;20027;-91
2023/10/16 01:43:37;;;;;;;6.15;5.68;;;4.60;95.30;;;;;;4962446;28;20037;-90
2023/10/16 01:46:10;;;;;;;5.20;4.82;;;4.50;95.50;;;;;;4958501;28;20035;-90
2023/10/16 01:48:39;;;;;;;5.45;5.15;;;4.40;96.60;;;;;;4960076;28;20030;-89
2023/10/16 01:51:09;;;;;;;5.40;5.03;;;4.40;97.20;;;;;;4980405;28;20039;-90
2023/10/16 01:53:42;;;;;;;6.00;5.70;;;4.40;97.50;;;;;;4964142;28;20032;-92
2023/10/16 01:56:14;;;;;;;6.85;6.45;;;4.40;96.90;;;;;;4995120;28;20027;-92
2023/10/16 01:58:45;;;;;;;5.43;5.10;;;4.40;96.60;;;;;;4967754;28;20031;-90
2023/10/16 02:01:13;;;;;;;6.40;6.00;;;4.40;96.50;;;;;;4954252;29;20042;-89
2023/10/16 02:03:45;;;;;;;5.28;4.97;;;4.40;97.10;;;;;;4975943;28;20402;-89
2023/10/16 02:06:20;;;;;;;5.55;5.25;;;4.30;97.80;;;;;;4994515;28;20034;-91
2023/10/16 02:08:47;;;;;;;6.05;5.68;;;4.30;98.10;;;;;;4979140;28;20033;-91
2023/10/16 02:11:16;;;;;;;6.00;5.55;;;4.20;97.60;;;;;;4954828;28;20030;-90
2023/10/16 02:13:41;;;;;;;;;;;4.10;98.00;;;;;;4953568;28;20034;-90
2023/10/16 02:16:15;;;;;;;6.35;5.78;;;4.10;98.90;;;;;;4972637;28;19996;-90
2023/10/16 02:18:42;;;;;;;5.65;5.32;;;4.10;99.00;;;;;;4945154;28;20402;-92
2023/10/16 02:21:12;;;;;;;3.38;2.50;;;4.20;98.40;;;;;;4967580;28;20448;-91
2023/10/16 02:23:48;;;;;;;5.75;5.22;;;4.10;98.30;;;;;;4969993;28;20529;-90
2023/10/16 02:26:21;;;;;;;6.82;6.43;;;4.10;99.20;;;;;;4960813;28;20039;-89
2023/10/16 02:28:47;;;;;;;4.47;4.18;;;4.10;99.70;;;;;;4940969;28;20391;-91
2023/10/16 02:31:18;;;;;;;6.78;6.38;;;4.10;99.60;;;;;;4961514;28;20037;-89
2023/10/16 02:33:46;;;;;;;6.28;5.95;;;4.20;99.60;;;;;;4959402;28;20019;-92
2023/10/16 02:36:12;;;;;;;;;;;4.10;99.20;;;;;;4948036;29;20023;-92
2023/10/16 02:38:37;;;;;;;5.07;4.78;;;4.00;99.90;;;;;;4963534;28;20403;-92
2023/10/16 02:41:04;;;;;;;6.90;6.43;;;4.00;99.90;;;;;;4988770;28;20042;-90
2023/10/16 02:43:31;;;;;;;6.18;5.78;;;4.00;99.90;;;;;;4973746;28;20090;-92
2023/10/16 02:46:01;;;;;;;6.68;6.28;;;4.00;99.90;;;;;;4977354;28;20050;-91
2023/10/16 02:48:27;;;;;;;6.03;5.53;;;4.00;99.90;;;;;;4982128;28;20028;-92
2023/10/16 02:50:59;;;;;;;5.22;4.93;;;4.00;99.90;;;;;;4970737;28;20035;-90
2023/10/16 02:53:27;;;;;;;6.85;6.35;;;4.10;98.80;;;;;;4959938;28;20023;-88
2023/10/16 02:56:08;;;;;;;6.18;5.80;;;4.10;99.50;;;;;;4969458;28;20023;-89
2023/10/16 02:58:55;;;;;;;7.20;6.80;;;4.20;99.70;;;;;;4953145;28;20082;-91
2023/10/16 03:01:21;;;;;;;6.68;6.18;;;4.30;99.90;;;;;;4958154;29;20130;-90
2023/10/16 03:03:50;;;;;;;5.15;4.85;;;4.40;98.90;;;;;;4958163;28;20129;-91
2023/10/16 03:06:18;;;;;;;5.72;5.32;;;4.40;98.40;;;;;;4966583;28;20027;-90
2023/10/16 03:08:48;;;;;;;5.82;5.53;;;4.30;98.40;;;;;;4960288;28;20027;-92
2023/10/16 03:11:14;;;;;;;5.82;5.53;;;4.30;98.60;;;;;;4959240;29;20046;-92
2023/10/16 03:13:40;;;;;;;4.18;3.90;;;4.20;97.80;;;;;;4958582;28;20054;-90
2023/10/16 03:16:17;;;;;;;7.05;6.55;;;4.20;97.40;;;;;;4960157;28;20027;-90
2023/10/16 03:18:44;;;;;;;5.68;5.38;;;4.20;98.20;;;;;;4976261;28;20078;-89
2023/10/16 03:23:45;;;;;;;6.65;6.25;;;4.10;99.40;;;;;;4962224;28;20031;-90
2023/10/16 03:26:31;;;;;;;6.43;6.03;;;4.10;99.10;;;;;;4973865;28;20500;-91
2023/10/16 03:29:00;;;;;;;7.15;6.65;;;4.00;99.60;;;;;;4967352;28;20062;-91
2023/10/16 03:31:27;;;;;;;6.78;6.47;;;4.00;99.90;;;;;;4960430;28;20042;-91
2023/10/16 03:33:56;;;;;;;4.32;3.83;;;4.00;99.70;;;;;;4951204;29;20274;-91
2023/10/16 03:36:22;;;;;;;6.57;6.07;;;4.10;99.30;;;;;;4968051;28;20027;-90
2023/10/16 03:38:51;;;;;;;5.72;5.43;;;4.10;99.30;;;;;;4969769;28;20032;-90
2023/10/16 03:43:56;;;;;;;7.03;6.50;;;4.10;99.30;;;;;;4978502;28;20028;-91
2023/10/16 03:46:23;;;;;;;6.18;5.82;;;4.00;99.50;;;;;;4971154;28;20023;-91
2023/10/16 03:48:49;;;;;;;5.20;4.80;;;4.00;99.50;;;;;;4966257;29;20027;-90
2023/10/16 03:51:16;;;;;;;7.32;6.82;;;4.00;99.90;;;;;;4958963;29;20260;-89
2023/10/16 03:53:44;;;;;;;6.38;5.53;;;4.00;99.90;;;;;;4958292;29;20028;-89
2023/10/16 03:56:11;;;;;;;5.55;5.20;;;4.00;99.90;;;;;;4958903;28;20042;-90
2023/10/16 03:58:46;;;;;;;3.47;3.13;;;4.00;99.90;;;;;;4959579;28;20374;-90
2023/10/16 04:01:12;;;;;;;7.07;6.68;;;3.90;99.90;;;;;;4979971;28;20027;-91
2023/10/16 04:03:47;;;;;;;8.23;7.63;;;3.90;99.90;;;;;;4974140;28;20038;-88
2023/10/16 04:06:20;;;;;;;6.70;6.30;;;3.90;99.90;;;;;;4983351;28;20035;-91
2023/10/16 04:08:47;;;;;;;7.25;6.65;;;3.90;99.90;;;;;;4981596;28;20023;-91
2023/10/16 04:11:17;;;;;;;8.73;8.02;;;3.90;99.90;;;;;;4959891;28;20556;-90
2023/10/16 04:13:48;;;;;;;5.95;5.45;;;3.90;99.90;;;;;;4966019;28;20034;-90
2023/10/16 04:16:49;;;;;;;7.43;6.82;;;3.90;99.90;;;;;;4968721;28;20098;-91
2023/10/16 04:21:43;;;;;;;5.25;4.53;;;3.90;99.90;;;;;;4982102;28;20437;-90
2023/10/16 04:29:49;;;;;;;6.65;6.25;;;3.70;99.90;;;;;;4974988;28;20399;-90
2023/10/16 04:35:29;;;;;;;5.97;5.68;;;3.70;99.90;;;;;;4962356;29;20030;-91
2023/10/16 04:37:54;;;;;;;8.00;7.40;;;3.70;99.90;;;;;;4970837;28;20033;-90
2023/10/16 04:43:08;;;;;;;7.82;7.18;;;3.70;99.90;;;;;;4968073;28;20100;-90
2023/10/16 04:45:59;;;;;;;7.15;6.55;;;3.70;99.90;;;;;;4964697;28;20455;-91
2023/10/16 04:51:36;;;;;;;8.10;7.45;;;3.50;99.90;;;;;;4958709;29;20110;-91
2023/10/16 04:54:26;;;;;;;8.75;8.15;;;3.50;99.90;;;;;;4942327;29;20548;-90
2023/10/16 04:57:18;;;;;;;10.43;9.65;;;3.50;99.90;;;;;;4956883;29;20024;-93
2023/10/16 05:00:00;;;;;;;10.48;9.52;;;3.50;99.90;;;;;;4954985;28;20561;-89
2023/10/16 05:02:40;;;;;;;8.20;7.65;;;3.50;99.90;;;;;;4964783;28;20067;-92
2023/10/16 05:07:53;;;;;;;6.90;6.40;;;3.40;99.90;;;;;;4980836;28;20099;-92
2023/10/16 05:13:24;;;;;;;8.15;7.47;;;3.50;99.90;;;;;;4964792;28;20030;-93
2023/10/16 05:18:46;;;;;;;7.55;7.03;;;3.50;99.90;;;;;;4981217;28;20087;-90
2023/10/16 05:21:51;;;;;;;4.68;3.45;;;3.50;99.90;;;;;;4970986;28;20336;-92
2023/10/16 06:16:20;;;;;;;5.50;5.07;;;3.20;99.90;;;;;;4952801;28;20245;-94
2023/10/16 06:18:47;;;;;;;7.90;7.40;;;3.20;99.90;;;;;;4958986;29;20121;-91
2023/10/16 06:21:14;;;;;;;7.72;7.22;;;3.20;99.90;;;;;;4947299;28;20031;-90
2023/10/16 06:23:49;;;;;;;8.57;7.97;;;3.20;99.90;;;;;;4953060;28;20075;-91
2023/10/16 06:26:21;;;;;;;6.55;6.05;;;3.20;99.90;;;;;;4944776;28;20046;-91
2023/10/16 06:28:47;;;;;;;7.43;6.93;;;3.20;99.90;;;;;;4971341;28;20035;-93
2023/10/16 06:31:23;;;;;;;8.48;7.82;;;3.20;99.90;;;;;;4958529;28;20047;-90
2023/10/16 06:33:53;;;;;;;7.65;7.00;;;3.20;99.90;;;;;;4968783;28;20043;-94
2023/10/16 06:36:24;;;;;;;8.63;7.93;;;3.30;99.90;;;;;;4973121;28;20015;-88
2023/10/16 06:38:52;;;;;;;9.95;9.15;;;3.30;99.90;;;;;;4963277;28;20077;-92
2023/10/16 06:41:19;;;;;;;8.43;7.82;;;3.30;99.90;;;;;;4981707;28;20066;-90
2023/10/16 06:43:48;;;;;;;8.25;7.70;;;3.20;99.90;;;;;;4958503;28;20028;-91
2023/10/16 06:46:25;;;;;;;7.47;6.88;;;3.20;99.90;;;;;;4952383;29;20036;-91
2023/10/16 06:48:57;;;;;;;7.03;6.53;;;3.30;99.90;;;;;;4979232;28;20033;-92
2023/10/16 06:51:25;;;;;;;7.72;7.18;;;3.30;99.90;;;;;;4980404;28;20034;-92
2023/10/16 06:53:53;;;;;;;7.07;6.38;;;3.40;99.90;;;;;;4972130;28;20089;-91
2023/10/16 06:56:31;;;;;;;;;;;3.30;99.90;;;;;;4957309;28;20024;-89
2023/10/16 06:58:58;;;;;;;8.52;7.93;;;3.30;99.90;;;;;;4945143;29;19913;-90
2023/10/16 07:01:25;;;;;;;6.38;5.88;;;3.40;99.90;;;;;;4959483;29;20031;-88
2023/10/16 07:03:54;;;;;;;8.70;8.13;;;3.40;99.90;;;;;;4980679;28;20027;-90
2023/10/16 07:06:24;;;;;;;5.82;5.22;;;3.40;99.90;;;;;;4981033;28;20162;-91
2023/10/16 07:08:51;;;;;;;8.02;7.43;;;3.40;99.90;;;;;;4982178;28;20034;-89
2023/10/16 07:11:19;;;;;;;7.65;7.00;;;3.50;99.90;;;;;;4981838;28;20043;-90
2023/10/16 07:13:44;;;;;;;8.70;8.10;;;3.60;99.90;;;;;;4961247;28;20074;-93
2023/10/16 07:16:10;;;;;;;6.05;5.55;;;3.60;99.90;;;;;;4965748;28;20028;-89
2023/10/16 07:18:42;;;;;;;6.72;6.22;;;3.70;99.90;;;;;;4976246;28;20027;-92
2023/10/16 07:21:08;;;;;;;6.53;5.95;;;3.80;99.90;;;;;;4948375;29;20119;-90
2023/10/16 07:23:35;;;;;;;8.57;8.00;;;3.80;99.90;;;;;;4976928;28;20024;-89
2023/10/16 07:26:06;;;;;;;8.55;7.95;;;3.90;99.90;;;;;;4960796;28;20047;-91
2023/10/16 07:28:32;;;;;;;6.35;5.90;;;4.00;99.90;;;;;;4962559;28;20390;-92
2023/10/16 07:30:59;;;;;;;8.55;7.95;;;4.10;99.90;;;;;;4981819;28;20031;-90
2023/10/16 07:33:26;;;;;;;7.38;6.88;;;4.20;99.90;;;;;;4964415;28;20027;-91
2023/10/16 07:35:53;;;;;;;8.13;7.53;;;4.30;99.90;;;;;;4964389;28;20058;-91
2023/10/16 07:38:20;;;;;;;8.57;7.88;;;4.40;99.90;;;;;;4979494;28;20082;-91
2023/10/16 07:40:59;;;;;;;10.02;9.32;;;4.50;99.90;;;;;;4965375;28;20034;-91
2023/10/16 07:43:32;;;;;;;7.03;6.57;;;4.60;99.90;;;;;;4963926;29;20401;-91
2023/10/16 07:48:34;;;;;;;8.07;7.38;;;4.80;99.90;;;;;;4982742;28;20027;-91
2023/10/16 07:51:01;;;;;;;7.40;6.85;;;4.90;99.90;;;;;;4969127;28;20031;-92
2023/10/16 07:53:28;;;;;;;8.27;7.68;;;5.00;99.50;;;;;;4967765;28;20082;-91
2023/10/16 07:55:55;;;;;;;7.63;7.13;;;5.20;99.40;;;;;;4965401;29;20019;-91
2023/10/16 07:58:33;;;;;;;7.88;7.07;;;5.20;98.50;;;;;;4968000;29;20029;-90
2023/10/16 08:01:17;;;;;;;8.75;8.15;;;5.40;99.30;;;;;;4981197;28;20050;-90
2023/10/16 08:03:46;;;;;;;9.02;8.23;;;5.60;98.80;;;;;;4964729;29;20048;-91
2023/10/16 08:06:17;;;;;;;8.80;7.90;;;5.70;97.80;;;;;;4963923;29;20065;-91
2023/10/16 08:08:48;;;;;;;8.80;7.57;;;5.80;97.00;;;;;;4974451;28;20031;-92
2023/10/16 08:11:19;;;;;;;6.75;6.13;;;5.90;96.80;;;;;;4972127;28;20035;-91
2023/10/16 08:13:52;;;;;;;9.60;8.77;;;5.90;95.60;;;;;;4982220;28;20031;-90
2023/10/16 08:16:21;;;;;;;8.55;7.75;;;6.00;95.30;;;;;;4957766;28;20024;-90
2023/10/16 08:18:48;;;;;;;8.57;7.97;;;6.00;95.00;;;;;;4949751;29;20497;-90
2023/10/16 08:21:24;;;;;;;7.30;6.80;;;6.00;95.80;;;;;;4966214;28;20027;-91
2023/10/16 08:23:54;;;;;;;7.78;7.20;;;6.10;95.80;;;;;;4965066;28;20081;-91
2023/10/16 08:26:30;;;;;;;8.82;8.13;;;6.10;95.60;;;;;;4964724;29;20098;-90
2023/10/16 08:29:19;;;;;;;7.97;7.28;;;6.30;94.80;;;;;;4984627;28;20026;-90
2023/10/16 08:34:35;;;;;;;7.20;6.65;;;6.30;94.90;;;;;;4965584;28;20031;-89
2023/10/16 08:37:04;;;;;;;7.53;6.90;;;6.50;95.00;;;;;;4983754;28;20525;-91
2023/10/16 08:39:36;;;;;;;7.45;6.85;;;6.60;93.70;;;;;;4989834;28;20046;-92
2023/10/16 08:42:18;;;;;;;8.30;7.75;;;6.50;92.90;;;;;;4968320;28;20023;-90
2023/10/16 08:44:51;;;;;;;8.07;7.45;;;6.50;93.60;;;;;;4962101;29;20663;-92
2023/10/16 08:47:26;;;;;;;7.00;6.53;;;6.60;93.00;;;;;;4959914;28;20035;-92
2023/10/16 08:49:54;;;;;;;7.20;6.57;;;6.80;93.10;;;;;;4978235;28;20063;-91
2023/10/16 08:52:22;;;;;;;6.90;6.40;;;6.90;92.10;;;;;;4977101;28;20085;-91
2023/10/16 08:57:22;;;;;;;6.57;5.97;;;7.10;92.20;;;;;;4982653;28;20101;-91
2023/10/16 08:59:50;;;;;;;6.15;5.65;;;7.20;92.00;;;;;;4974133;28;20114;-89
2023/10/16 09:02:19;;;;;;;7.75;7.15;;;7.30;90.70;;;;;;4969107;28;20016;-90
2023/10/16 09:04:48;;;;;;;8.23;7.63;;;7.40;90.10;;;;;;4962339;29;20027;-91
2023/10/16 09:07:17;;;;;;;7.55;6.95;;;7.40;90.10;;;;;;4977447;28;20028;-91
2023/10/16 09:09:48;;;;;;;8.52;7.82;;;7.50;89.80;;;;;;4966733;28;20055;-90
2023/10/16 09:12:27;;;;;;;9.70;8.90;;;7.60;88.60;;;;;;4963168;28;20094;-90
2023/10/16 09:14:54;;;;;;;8.32;7.63;;;7.80;89.10;;;;;;4951098;29;20494;-89
2023/10/16 09:17:24;;;;;;;6.80;6.30;;;7.90;88.90;;;;;;4972109;28;20031;-91
2023/10/16 09:19:53;;;;;;;8.75;8.15;;;8.00;88.20;;;;;;4969887;28;20039;-90
2023/10/16 09:22:23;;;;;;;7.07;6.47;;;8.10;87.30;;;;;;4969745;28;20034;-89
2023/10/16 09:24:51;;;;;;;6.82;6.22;;;8.20;87.60;;;;;;4980083;28;20019;-91
2023/10/16 09:27:36;;;;;;;8.52;7.82;;;8.30;87.70;;;;;;4988251;28;20026;-90
2023/10/16 09:30:14;;;;;;;9.23;8.52;;;8.40;87.40;;;;;;4955616;28;20026;-89
2023/10/16 09:32:41;;;;;;;8.65;7.82;;;8.60;86.10;;;;;;4980505;28;20023;-90
2023/10/16 09:35:13;;;;;;;6.63;6.13;;;9.00;85.10;;;;;;4978236;28;20018;-91
2023/10/16 09:37:40;;;;;;;6.50;5.95;;;9.20;82.90;;;;;;4967959;28;20027;-91
2023/10/16 09:40:19;;;;;;;7.65;6.03;;;9.40;82.50;;;;;;4954589;28;20024;-91
2023/10/16 09:42:56;;;;;;;6.93;6.38;;;9.50;80.40;;;;;;4968492;28;20039;-90
2023/10/16 09:45:24;;;;;;;6.13;5.57;;;9.60;80.60;;;;;;4965146;28;20680;-90
2023/10/16 09:47:55;;;;;;;6.90;6.40;;;9.80;80.50;;;;;;4977447;28;20038;-91
2023/10/16 09:50:24;;;;;;;6.93;6.32;;;9.80;80.00;;;;;;4975407;28;20092;-90
2023/10/16 09:52:49;;;;;;;5.15;4.75;;;9.90;79.80;;;;;;4979064;28;20038;-90
2023/10/16 09:55:19;;;;;;;6.75;6.22;;;10.10;77.20;;;;;;4978217;28;20031;-91
2023/10/16 09:57:55;;;;;;;7.38;6.78;;;10.10;78.00;;;;;;4975675;28;20494;-91
2023/10/16 10:03:05;;;;;;;6.05;5.55;;;10.70;74.70;;;;;;4990808;28;20027;-92
2023/10/16 10:05:41;;;;;;;7.00;6.40;;;10.90;73.90;;;;;;4973985;28;20037;-92
2023/10/16 10:08:20;;;;;;;6.10;5.60;;;10.80;73.70;;;;;;4979780;28;20039;-93
2023/10/16 10:13:43;;;;;;;5.20;4.82;;;11.10;73.30;;;;;;4978314;28;20035;-93
2023/10/16 10:16:15;;;;;;;6.65;6.25;;;11.40;70.90;;;;;;4966982;28;20035;-91
2023/10/16 10:18:47;;;;;;;5.80;5.40;;;11.60;70.30;;;;;;4953520;29;20118;-90
2023/10/16 10:21:27;;;;;;;5.28;4.88;;;11.70;70.20;;;;;;4960490;28;20027;-91
2023/10/16 10:24:00;;;;;;;4.70;4.05;;;11.80;68.20;;;;;;4939426;29;20024;-90
2023/10/16 10:26:26;;;;;;;4.15;3.78;;;12.00;67.20;;;;;;4947752;29;20054;-91
2023/10/16 10:29:12;;;;;;;4.10;3.70;;;12.30;66.50;;;;;;4958481;28;20043;-91
2023/10/16 10:31:41;;;;;;;5.60;5.20;;;12.30;67.00;;;;;;4974916;28;20078;-90
2023/10/16 10:34:23;;;;;;;6.43;6.03;;;12.20;66.70;;;;;;4958765;28;20079;-90
2023/10/16 10:36:53;;;;;;;4.45;4.05;;;12.10;66.00;;;;;;4957560;28;20040;-91
2023/10/16 10:39:21;;;;;;;5.13;4.82;;;12.20;66.60;;;;;;4957369;28;20015;-90
2023/10/16 10:41:54;;;;;;;4.97;4.47;;;12.50;63.80;;;;;;4947160;28;20527;-91
2023/10/16 10:44:29;;;;;;;4.15;3.65;;;12.50;65.10;;;;;;4954796;28;20028;-91
2023/10/16 10:46:55;;;;;;;3.75;3.45;;;12.80;62.60;;;;;;4953244;29;20027;-91
2023/10/16 10:49:33;;;;;;;3.45;3.25;;;12.90;60.00;;;;;;4951919;28;20019;-91
2023/10/16 10:52:06;;;;;;;2.30;2.15;;;13.10;56.70;;;;;;4959457;28;20047;-91
2023/10/16 10:54:42;;;;;;;4.72;4.00;;;13.50;55.70;;;;;;4960035;28;20047;-92
2023/10/16 10:57:19;;;;;;;3.22;3.03;;;13.70;55.90;;;;;;4950797;28;20345;-92
2023/10/16 10:59:55;;;;;;;2.22;2.05;;;14.00;52.30;;;;;;4960342;28;20086;-91
2023/10/16 11:05:22;;;;;;;2.78;2.58;;;14.20;52.30;;;;;;4962979;28;20031;-91
2023/10/16 11:07:45;;;;;;;3.33;3.08;;;14.20;52.60;;;;;;4978372;28;20485;-92
2023/10/16 11:10:13;;;;;;;3.30;3.10;;;14.00;53.10;;;;;;4965254;28;20031;-91
2023/10/16 11:12:39;;;;;;;4.55;4.15;;;13.90;53.50;;;;;;4961250;28;20096;-92
2023/10/16 11:15:22;;;;;;;4.00;3.05;;;14.20;52.80;;;;;;4960942;28;20497;-91
2023/10/16 11:17:47;;;;;;;2.80;2.60;;;14.00;53.10;;;;;;4966486;28;20114;-90
2023/10/16 11:22:44;;;;;;;3.22;3.00;;;13.90;54.20;;;;;;4959778;28;20023;-91
2023/10/16 11:25:13;;;;;;;2.55;2.35;;;14.20;53.80;;;;;;4952453;29;20041;-91
2023/10/16 11:27:42;;;;;;;3.45;3.08;;;14.40;52.20;;;;;;4965768;28;20023;-91
2023/10/16 11:30:18;;;;;;;3.22;3.03;;;14.50;52.60;;;;;;4953912;29;20034;-89
2023/10/16 11:32:47;;;;;;;3.33;2.97;;;14.80;50.30;;;;;;4940425;29;20343;-91
2023/10/16 11:35:17;;;;;;;2.75;2.55;;;14.70;50.70;;;;;;4967582;28;20073;-91
2023/10/16 11:37:44;;;;;;;3.72;3.42;;;14.90;49.50;;;;;;4967510;28;20139;-90
2023/10/16 11:40:31;;;;;;;3.15;2.85;;;14.90;49.80;;;;;;4972320;28;20027;-92
2023/10/16 11:42:58;;;;;;;2.97;2.78;;;15.00;49.40;;;;;;4968710;28;20023;-91
2023/10/16 11:45:24;;;;;;;2.60;2.40;;;15.20;48.80;;;;;;4967618;28;20035;-93
2023/10/16 11:50:41;;;;;;;2.53;2.28;;;15.70;47.00;;;;;;4960813;28;20086;-91
2023/10/16 11:53:08;;;;;;;3.25;3.05;;;15.80;46.30;;;;;;4979364;28;20026;-93
2023/10/16 11:55:37;;;;;;;2.40;2.17;;;15.90;46.10;;;;;;4963640;28;20035;-92
2023/10/16 11:58:06;;;;;;;3.00;2.80;;;15.80;44.80;;;;;;4962089;28;20030;-92
2023/10/16 12:00:35;;;;;;;2.55;2.35;;;16.00;44.80;;;;;;4975070;28;20054;-92
2023/10/16 12:03:07;;;;;;;3.03;2.75;;;15.80;45.90;;;;;;4960669;28;20028;-91
2023/10/16 12:05:36;;;;;;;2.83;2.63;;;15.80;45.30;;;;;;4970783;28;20473;-90
2023/10/16 12:08:02;;;;;;;2.95;2.63;;;15.80;45.20;;;;;;4960710;28;20525;-91
2023/10/16 12:10:29;;;;;;;2.05;1.95;;;16.20;44.00;;;;;;4956257;29;20056;-93
2023/10/16 12:12:55;;;;;;;2.65;2.05;;;16.30;43.10;;;;;;4944783;29;20023;-91
2023/10/16 12:15:25;;;;;;;2.33;2.13;;;16.50;43.30;;;;;;4963309;28;20023;-92
2023/10/16 12:17:53;;;;;;;3.38;3.17;;;16.60;43.00;;;;;;4951567;28;20012;-91
2023/10/16 12:20:22;;;;;;;3.75;3.55;;;16.70;40.90;;;;;;4969333;28;20039;-94
2023/10/16 12:22:49;;;;;;;2.83;2.63;;;17.00;40.10;;;;;;4944245;28;20035;-92
2023/10/16 12:25:15;;;;;;;2.53;2.15;;;16.90;39.20;;;;;;4957692;28;20027;-93
2023/10/16 12:27:41;;;;;;;2.03;1.88;;;17.00;38.60;;;;;;4963168;28;20035;-92
2023/10/16 12:30:13;;;;;;;2.22;2.03;;;17.40;37.80;;;;;;4963387;28;20035;-92
2023/10/16 12:32:38;;;;;;;3.33;2.75;;;17.40;38.40;;;;;;4964130;29;20028;-92
2023/10/16 12:35:08;;;;;;;2.10;1.92;;;17.40;38.10;;;;;;4962962;29;20028;-92
2023/10/16 12:37:34;;;;;;;2.10;1.90;;;17.30;39.10;;;;;;4962577;28;20027;-92
2023/10/16 12:40:19;;;;;;;3.38;3.17;;;17.40;39.20;;;;;;4963916;28;20023;-92
2023/10/16 12:42:45;;;;;;;2.53;2.33;;;17.20;38.80;;;;;;4962926;29;20031;-93
2023/10/16 12:45:11;;;;;;;3.10;2.90;;;17.30;39.30;;;;;;4978951;28;20051;-92
2023/10/16 12:47:37;;;;;;;3.03;2.92;;;17.60;37.80;;;;;;4972412;28;20034;-92
2023/10/16 12:50:05;;;;;;;3.08;2.83;;;17.50;38.30;;;;;;4982974;28;20091;-92
2023/10/16 12:52:31;;;;;;;2.40;2.13;;;17.70;37.60;;;;;;4962498;28;20090;-93
2023/10/16 12:55:00;;;;;;;2.83;2.63;;;18.00;37.20;;;;;;4974908;28;20038;-91
2023/10/16 12:57:27;;;;;;;3.13;2.85;;;18.00;35.40;;;;;;4975532;28;20047;-92
2023/10/16 12:59:56;;;;;;;2.40;2.30;;;18.00;35.80;;;;;;4964364;28;20023;-93
2023/10/16 13:02:25;;;;;;;2.25;2.15;;;18.30;34.40;;;;;;4971805;28;20084;-93
2023/10/16 13:04:52;;;;;;;2.85;2.67;;;17.90;34.60;;;;;;4964838;28;20405;-93
2023/10/16 13:07:20;;;;;;;2.33;2.08;;;18.10;34.60;;;;;;4964076;28;20052;-93
2023/10/16 13:09:47;;;;;;;2.65;2.45;;;18.30;34.20;;;;;;4962662;28;20023;-91
2023/10/16 13:12:13;;;;;;;2.53;2.42;;;18.80;33.40;;;;;;4964240;28;20027;-93
2023/10/16 13:14:40;;;;;;;2.60;2.50;;;18.80;32.30;;;;;;4986899;28;20504;-90
2023/10/16 13:17:08;;;;;;;1.60;1.42;;;18.00;33.30;;;;;;4981460;28;20034;-91
2023/10/16 13:19:35;;;;;;;1.77;1.67;;;18.20;32.40;;;;;;4962129;28;20023;-93
2023/10/16 13:22:10;;;;;;;1.27;1.23;;;18.70;32.50;;;;;;4959871;29;20355;-91
2023/10/16 13:24:36;;;;;;;2.50;2.33;;;18.70;31.60;;;;;;4975083;28;20094;-91
2023/10/16 13:27:01;;;;;;;2.10;2.00;;;19.10;31.00;;;;;;4959399;29;20023;-91
2023/10/16 13:29:27;;;;;;;2.00;1.90;;;19.30;31.90;;;;;;4967311;28;20406;-95
2023/10/16 13:31:56;;;;;;;2.47;2.28;;;19.20;31.50;;;;;;4975525;28;20026;-92
2023/10/16 13:34:22;;;;;;;2.42;2.22;;;19.30;30.70;;;;;;4957273;28;20083;-91
2023/10/16 13:37:00;;;;;;;3.03;2.83;;;19.30;31.10;;;;;;4950485;29;20035;-92
2023/10/16 13:39:31;;;;;;;2.15;2.05;;;19.80;30.50;;;;;;4943472;29;20027;-92
2023/10/16 13:41:58;;;;;;;2.22;2.13;;;20.20;29.30;;;;;;4953346;28;20646;-92
2023/10/16 13:44:24;;;;;;;2.53;2.35;;;20.20;28.70;;;;;;4954386;28;20078;-93
2023/10/16 13:46:51;;;;;;;2.22;2.03;;;20.60;27.70;;;;;;4952232;28;20031;-93
2023/10/16 13:49:18;;;;;;;2.65;2.55;;;19.90;27.60;;;;;;4954676;28;20043;-93
2023/10/16 13:51:48;;;;;;;3.00;2.80;;;19.60;28.10;;;;;;4955418;28;20115;-92
2023/10/16 13:54:14;;;;;;;3.05;2.85;;;20.10;28.00;;;;;;4968095;28;20023;-92
2023/10/16 13:56:46;;;;;;;2.42;2.33;;;20.10;28.20;;;;;;4952622;28;20097;-93
2023/10/16 13:59:13;;;;;;;2.20;2.10;;;20.00;28.50;;;;;;4961357;29;20019;-92
2023/10/16 14:01:39;;;;;;;2.78;2.58;;;19.80;28.80;;;;;;4951108;29;20042;-93
2023/10/16 14:04:15;;;;;;;2.42;2.33;;;20.00;28.50;;;;;;4945656;29;20670;-93
2023/10/16 14:06:47;;;;;;;2.05;1.95;;;20.40;27.70;;;;;;4949100;29;20079;-92
2023/10/16 14:09:20;;;;;;;2.40;2.30;;;20.40;28.50;;;;;;4950890;28;20053;-92
2023/10/16 14:11:49;;;;;;;2.47;2.28;;;20.80;28.60;;;;;;4948670;28;20023;-92
2023/10/16 14:14:20;;;;;;;2.58;2.38;;;20.80;29.30;;;;;;4954149;28;20142;-95
2023/10/16 14:16:50;;;;;;;2.85;2.65;;;21.10;29.90;;;;;;4955032;28;20101;-94
2023/10/16 14:19:23;;;;;;;2.70;2.55;;;21.20;28.90;;;;;;4955780;28;20039;-93
2023/10/16 14:21:51;;;;;;;12.30;7.57;;;20.80;29.40;;;;;;4957229;28;20032;-92
2023/10/16 14:24:22;;;;;;;7.30;5.82;;;19.80;31.40;;;;;;4953015;28;20032;-93
2023/10/16 14:26:49;;;;;;;3.22;2.95;;;19.70;31.90;;;;;;4951364;29;20042;-91
2023/10/16 14:29:16;;;;;;;9.88;5.93;;;19.60;32.00;;;;;;4951004;28;20023;-92
2023/10/16 14:31:46;;;;;;;2.67;2.47;;;19.40;32.80;;;;;;4968679;28;20039;-93
2023/10/16 14:34:18;;;;;;;3.55;3.35;;;19.70;32.60;;;;;;4945672;29;20105;-92
2023/10/16 14:36:47;;;;;;;4.28;3.30;;;19.70;31.80;;;;;;4943300;28;20118;-92
2023/10/16 14:39:13;;;;;;;3.85;3.45;;;19.50;32.60;;;;;;4950020;28;20035;-93
2023/10/16 14:41:43;;;;;;;3.92;3.72;;;19.50;33.30;;;;;;4948987;28;20034;-92
2023/10/16 14:44:09;;;;;;;3.05;2.88;;;19.70;32.80;;;;;;4951116;28;20035;-92
2023/10/16 14:46:36;;;;;;;4.45;4.10;;;19.50;32.80;;;;;;4945891;29;20027;-94
2023/10/16 14:49:04;;;;;;;1.67;1.58;;;19.50;32.40;;;;;;4950977;29;20601;-93
2023/10/16 14:51:30;;;;;;;3.47;3.17;;;19.00;33.60;;;;;;4947650;28;20067;-93
2023/10/16 14:53:56;;;;;;;3.42;2.70;;;18.80;34.40;;;;;;4951296;29;20024;-92